sensor_id;sensor_type;location;lat;lon;timestamp;P1;durP1;ratioP1;P2;durP2;ratioP2
15297;SDS011;7750;48.796;9.026;2024-02-26T00:01:28;3.40;;;2.40;;
15297;SDS011;7750;48.796;9.026;2024-02-26T00:06:32;4.63;;;2.10;;
15297;SDS011;7750;48.796;9.026;2024-02-26T00:11:35;4.10;;;2.77;;
15297;SDS011;7750;48.796;9.026;2024-02-26T00:16:36;5.07;;;3.10;;
15297;SDS011;7750;48.796;9.026;2024-02-26T00:21:41;3.83;;;2.37;;
15297;SDS011;7750;48.796;9.026;2024-02-26T00:26:42;3.00;;;2.10;;
15297;SDS011;7750;48.796;9.026;2024-02-26T00:31:42;3.20;;;2.20;;
15297;SDS011;7750;48.796;9.026;2024-02-26T00:36:43;4.80;;;2.70;;
15297;SDS011;7750;48.796;9.026;2024-02-26T00:41:44;2.13;;;1.70;;
15297;SDS011;7750;48.796;9.026;2024-02-26T00:46:44;3.17;;;1.90;;
15297;SDS011;7750;48.796;9.026;2024-02-26T00:51:45;2.53;;;1.87;;
15297;SDS011;7750;48.796;9.026;2024-02-26T00:56:45;3.10;;;1.80;;
15297;SDS011;7750;48.796;9.026;2024-02-26T01:01:46;3.10;;;1.70;;
15297;SDS011;7750;48.796;9.026;2024-02-26T01:06:47;3.20;;;1.90;;
15297;SDS011;7750;48.796;9.026;2024-02-26T01:11:47;2.43;;;1.47;;
15297;SDS011;7750;48.796;9.026;2024-02-26T01:16:48;2.87;;;1.83;;
15297;SDS011;7750;48.796;9.026;2024-02-26T01:21:49;2.70;;;1.70;;
15297;SDS011;7750;48.796;9.026;2024-02-26T01:26:49;2.50;;;1.57;;
15297;SDS011;7750;48.796;9.026;2024-02-26T01:31:50;2.27;;;1.70;;
15297;SDS011;7750;48.796;9.026;2024-02-26T01:36:50;3.33;;;2.17;;
15297;SDS011;7750;48.796;9.026;2024-02-26T01:41:51;3.43;;;2.07;;
15297;SDS011;7750;48.796;9.026;2024-02-26T01:46:52;4.03;;;2.13;;
15297;SDS011;7750;48.796;9.026;2024-02-26T01:51:53;3.50;;;2.17;;
15297;SDS011;7750;48.796;9.026;2024-02-26T01:56:54;4.00;;;2.73;;
15297;SDS011;7750;48.796;9.026;2024-02-26T02:01:57;5.03;;;3.10;;
15297;SDS011;7750;48.796;9.026;2024-02-26T02:06:59;3.90;;;2.50;;
15297;SDS011;7750;48.796;9.026;2024-02-26T02:12:00;5.80;;;3.63;;
15297;SDS011;7750;48.796;9.026;2024-02-26T02:17:01;5.77;;;3.60;;
15297;SDS011;7750;48.796;9.026;2024-02-26T02:22:02;4.60;;;3.30;;
15297;SDS011;7750;48.796;9.026;2024-02-26T02:27:03;5.00;;;2.70;;
15297;SDS011;7750;48.796;9.026;2024-02-26T02:32:03;3.03;;;2.00;;
15297;SDS011;7750;48.796;9.026;2024-02-26T02:37:04;2.70;;;1.90;;
15297;SDS011;7750;48.796;9.026;2024-02-26T02:42:05;3.60;;;2.60;;
15297;SDS011;7750;48.796;9.026;2024-02-26T02:47:06;3.10;;;2.03;;
15297;SDS011;7750;48.796;9.026;2024-02-26T02:52:06;2.90;;;1.60;;
15297;SDS011;7750;48.796;9.026;2024-02-26T02:57:07;2.40;;;1.60;;
15297;SDS011;7750;48.796;9.026;2024-02-26T03:02:08;2.10;;;1.50;;
15297;SDS011;7750;48.796;9.026;2024-02-26T03:07:09;2.37;;;1.57;;
15297;SDS011;7750;48.796;9.026;2024-02-26T03:12:09;2.00;;;1.33;;
15297;SDS011;7750;48.796;9.026;2024-02-26T03:17:10;2.17;;;1.60;;
15297;SDS011;7750;48.796;9.026;2024-02-26T03:22:11;3.20;;;1.50;;
15297;SDS011;7750;48.796;9.026;2024-02-26T03:27:12;2.40;;;1.37;;
15297;SDS011;7750;48.796;9.026;2024-02-26T03:32:13;2.20;;;1.30;;
15297;SDS011;7750;48.796;9.026;2024-02-26T03:37:13;2.17;;;1.10;;
15297;SDS011;7750;48.796;9.026;2024-02-26T03:42:15;1.80;;;1.13;;
15297;SDS011;7750;48.796;9.026;2024-02-26T03:47:16;1.90;;;1.40;;
15297;SDS011;7750;48.796;9.026;2024-02-26T03:52:17;2.93;;;1.13;;
15297;SDS011;7750;48.796;9.026;2024-02-26T03:57:17;1.80;;;1.20;;
15297;SDS011;7750;48.796;9.026;2024-02-26T04:02:18;1.70;;;1.23;;
15297;SDS011;7750;48.796;9.026;2024-02-26T04:07:22;2.47;;;1.30;;
15297;SDS011;7750;48.796;9.026;2024-02-26T04:12:23;1.60;;;1.20;;
15297;SDS011;7750;48.796;9.026;2024-02-26T04:17:24;1.87;;;1.30;;
15297;SDS011;7750;48.796;9.026;2024-02-26T04:22:24;1.70;;;1.10;;
15297;SDS011;7750;48.796;9.026;2024-02-26T04:27:25;1.63;;;0.90;;
15297;SDS011;7750;48.796;9.026;2024-02-26T04:32:25;1.57;;;1.00;;
15297;SDS011;7750;48.796;9.026;2024-02-26T04:37:27;2.57;;;1.70;;
15297;SDS011;7750;48.796;9.026;2024-02-26T04:42:30;1.70;;;1.17;;
15297;SDS011;7750;48.796;9.026;2024-02-26T04:47:31;2.10;;;1.37;;
15297;SDS011;7750;48.796;9.026;2024-02-26T04:52:32;2.77;;;2.00;;
15297;SDS011;7750;48.796;9.026;2024-02-26T04:57:32;2.67;;;1.73;;
15297;SDS011;7750;48.796;9.026;2024-02-26T05:02:34;1.70;;;1.30;;
15297;SDS011;7750;48.796;9.026;2024-02-26T05:07:41;2.03;;;1.47;;
15297;SDS011;7750;48.796;9.026;2024-02-26T05:12:43;2.73;;;1.60;;
15297;SDS011;7750;48.796;9.026;2024-02-26T05:17:44;3.20;;;1.73;;
15297;SDS011;7750;48.796;9.026;2024-02-26T05:22:45;1.90;;;1.40;;
15297;SDS011;7750;48.796;9.026;2024-02-26T05:27:45;1.90;;;1.17;;
15297;SDS011;7750;48.796;9.026;2024-02-26T05:32:46;2.83;;;1.60;;
15297;SDS011;7750;48.796;9.026;2024-02-26T05:37:47;4.13;;;1.73;;
15297;SDS011;7750;48.796;9.026;2024-02-26T05:42:47;2.60;;;1.60;;
15297;SDS011;7750;48.796;9.026;2024-02-26T05:47:49;2.20;;;1.63;;
15297;SDS011;7750;48.796;9.026;2024-02-26T05:52:49;4.20;;;2.53;;
15297;SDS011;7750;48.796;9.026;2024-02-26T05:57:50;3.90;;;2.57;;
15297;SDS011;7750;48.796;9.026;2024-02-26T06:02:51;4.80;;;2.50;;
15297;SDS011;7750;48.796;9.026;2024-02-26T06:07:51;5.43;;;2.20;;
15297;SDS011;7750;48.796;9.026;2024-02-26T06:12:52;4.20;;;2.00;;
15297;SDS011;7750;48.796;9.026;2024-02-26T06:17:53;2.73;;;1.60;;
15297;SDS011;7750;48.796;9.026;2024-02-26T06:22:53;7.30;;;1.70;;
15297;SDS011;7750;48.796;9.026;2024-02-26T06:27:54;2.77;;;1.47;;
15297;SDS011;7750;48.796;9.026;2024-02-26T06:32:55;2.90;;;1.80;;
15297;SDS011;7750;48.796;9.026;2024-02-26T06:37:56;2.97;;;1.60;;
15297;SDS011;7750;48.796;9.026;2024-02-26T06:42:56;5.73;;;2.00;;
15297;SDS011;7750;48.796;9.026;2024-02-26T06:47:57;2.27;;;1.63;;
15297;SDS011;7750;48.796;9.026;2024-02-26T06:52:57;2.37;;;1.60;;
15297;SDS011;7750;48.796;9.026;2024-02-26T06:57:58;2.57;;;1.53;;
15297;SDS011;7750;48.796;9.026;2024-02-26T07:02:59;2.93;;;1.80;;
15297;SDS011;7750;48.796;9.026;2024-02-26T07:08:00;2.97;;;2.00;;
15297;SDS011;7750;48.796;9.026;2024-02-26T07:13:00;3.83;;;2.37;;
15297;SDS011;7750;48.796;9.026;2024-02-26T07:18:01;7.90;;;2.40;;
15297;SDS011;7750;48.796;9.026;2024-02-26T07:23:04;3.97;;;2.27;;
15297;SDS011;7750;48.796;9.026;2024-02-26T07:28:05;3.40;;;2.10;;
15297;SDS011;7750;48.796;9.026;2024-02-26T07:33:05;3.27;;;2.17;;
15297;SDS011;7750;48.796;9.026;2024-02-26T07:38:07;2.30;;;1.67;;
15297;SDS011;7750;48.796;9.026;2024-02-26T07:43:08;3.00;;;1.93;;
15297;SDS011;7750;48.796;9.026;2024-02-26T07:48:08;2.70;;;1.63;;
15297;SDS011;7750;48.796;9.026;2024-02-26T07:53:09;3.73;;;1.93;;
15297;SDS011;7750;48.796;9.026;2024-02-26T07:58:10;2.97;;;1.90;;
15297;SDS011;7750;48.796;9.026;2024-02-26T08:03:10;2.10;;;1.43;;
15297;SDS011;7750;48.796;9.026;2024-02-26T08:08:11;1.60;;;1.23;;
15297;SDS011;7750;48.796;9.026;2024-02-26T08:13:12;2.70;;;1.20;;
15297;SDS011;7750;48.796;9.026;2024-02-26T08:18:12;2.47;;;1.50;;
15297;SDS011;7750;48.796;9.026;2024-02-26T08:23:13;3.90;;;1.53;;
15297;SDS011;7750;48.796;9.026;2024-02-26T08:28:13;2.50;;;1.33;;
15297;SDS011;7750;48.796;9.026;2024-02-26T08:33:14;2.37;;;1.17;;
15297;SDS011;7750;48.796;9.026;2024-02-26T08:38:15;1.93;;;1.40;;
15297;SDS011;7750;48.796;9.026;2024-02-26T08:43:15;3.73;;;2.00;;
15297;SDS011;7750;48.796;9.026;2024-02-26T08:48:16;3.63;;;2.00;;
15297;SDS011;7750;48.796;9.026;2024-02-26T08:53:17;2.47;;;1.73;;
15297;SDS011;7750;48.796;9.026;2024-02-26T08:58:17;5.33;;;2.80;;
15297;SDS011;7750;48.796;9.026;2024-02-26T09:03:18;3.63;;;2.30;;
15297;SDS011;7750;48.796;9.026;2024-02-26T09:23:45;3.97;;;2.77;;
15297;SDS011;7750;48.796;9.026;2024-02-26T09:28:48;3.27;;;2.50;;
15297;SDS011;7750;48.796;9.026;2024-02-26T09:33:48;2.60;;;1.83;;
15297;SDS011;7750;48.796;9.026;2024-02-26T09:38:49;2.70;;;1.80;;
15297;SDS011;7750;48.796;9.026;2024-02-26T09:43:50;4.67;;;1.60;;
15297;SDS011;7750;48.796;9.026;2024-02-26T09:48:56;4.47;;;1.60;;
15297;SDS011;7750;48.796;9.026;2024-02-26T09:53:58;4.10;;;1.50;;
15297;SDS011;7750;48.796;9.026;2024-02-26T10:04:21;3.53;;;1.40;;
15297;SDS011;7750;48.796;9.026;2024-02-26T10:25:23;12.17;;;3.90;;
15297;SDS011;7750;48.796;9.026;2024-02-26T10:30:27;5.60;;;3.97;;
15297;SDS011;7750;48.796;9.026;2024-02-26T11:01:50;4.57;;;3.40;;
15297;SDS011;7750;48.796;9.026;2024-02-26T11:32:48;3.57;;;2.80;;
15297;SDS011;7750;48.796;9.026;2024-02-26T11:37:55;4.07;;;2.27;;
15297;SDS011;7750;48.796;9.026;2024-02-26T12:03:42;3.43;;;2.60;;
15297;SDS011;7750;48.796;9.026;2024-02-26T12:08:44;3.47;;;2.07;;
15297;SDS011;7750;48.796;9.026;2024-02-26T12:13:47;3.10;;;2.03;;
15297;SDS011;7750;48.796;9.026;2024-02-26T12:18:50;3.00;;;2.00;;
15297;SDS011;7750;48.796;9.026;2024-02-26T12:23:51;3.50;;;2.00;;
15297;SDS011;7750;48.796;9.026;2024-02-26T12:28:53;3.20;;;1.93;;
15297;SDS011;7750;48.796;9.026;2024-02-26T12:33:54;5.17;;;2.20;;
15297;SDS011;7750;48.796;9.026;2024-02-26T12:38:58;5.23;;;1.97;;
15297;SDS011;7750;48.796;9.026;2024-02-26T12:44:00;2.30;;;1.47;;
15297;SDS011;7750;48.796;9.026;2024-02-26T12:49:01;3.07;;;1.60;;
15297;SDS011;7750;48.796;9.026;2024-02-26T12:54:02;2.23;;;1.30;;
15297;SDS011;7750;48.796;9.026;2024-02-26T12:59:03;2.50;;;1.50;;
15297;SDS011;7750;48.796;9.026;2024-02-26T13:04:16;9.93;;;3.83;;
15297;SDS011;7750;48.796;9.026;2024-02-26T14:00:54;4.40;;;1.27;;
15297;SDS011;7750;48.796;9.026;2024-02-26T14:05:55;4.50;;;1.47;;
15297;SDS011;7750;48.796;9.026;2024-02-26T14:16:05;1.80;;;1.00;;
15297;SDS011;7750;48.796;9.026;2024-02-26T14:41:42;1.80;;;1.00;;
15297;SDS011;7750;48.796;9.026;2024-02-26T14:46:45;2.00;;;1.40;;
15297;SDS011;7750;48.796;9.026;2024-02-26T14:51:47;2.00;;;1.20;;
15297;SDS011;7750;48.796;9.026;2024-02-26T15:17:28;1.93;;;1.20;;
15297;SDS011;7750;48.796;9.026;2024-02-26T15:37:55;2.00;;;1.30;;
15297;SDS011;7750;48.796;9.026;2024-02-26T15:48:08;1.67;;;1.03;;
15297;SDS011;7750;48.796;9.026;2024-02-26T15:53:10;2.10;;;1.07;;
15297;SDS011;7750;48.796;9.026;2024-02-26T15:58:10;4.80;;;2.40;;
15297;SDS011;7750;48.796;9.026;2024-02-26T16:08:22;13.50;;;10.07;;
15297;SDS011;7750;48.796;9.026;2024-02-26T16:13:23;14.53;;;11.50;;
15297;SDS011;7750;48.796;9.026;2024-02-26T16:18:24;11.80;;;10.50;;
15297;SDS011;7750;48.796;9.026;2024-02-26T16:23:25;4.60;;;3.00;;
15297;SDS011;7750;48.796;9.026;2024-02-26T16:28:26;2.70;;;1.70;;
15297;SDS011;7750;48.796;9.026;2024-02-26T16:33:26;2.20;;;1.30;;
15297;SDS011;7750;48.796;9.026;2024-02-26T16:38:27;2.47;;;1.40;;
15297;SDS011;7750;48.796;9.026;2024-02-26T16:43:27;3.63;;;1.60;;
15297;SDS011;7750;48.796;9.026;2024-02-26T16:53:39;4.03;;;2.00;;
15297;SDS011;7750;48.796;9.026;2024-02-26T16:58:39;4.20;;;2.23;;
15297;SDS011;7750;48.796;9.026;2024-02-26T17:03:40;4.70;;;2.23;;
15297;SDS011;7750;48.796;9.026;2024-02-26T17:08:40;4.57;;;2.13;;
